createdAt,value
2023-11-30T00:00:40.955Z,0.42
2023-11-30T00:01:42.955Z,0.44
2023-11-30T00:02:44.957Z,0.43
2023-11-30T00:03:47.093Z,0.41
2023-11-30T00:04:49.118Z,0.39
2023-11-30T00:05:51.125Z,0.40
2023-11-30T00:06:53.108Z,0.37
2023-11-30T00:07:55.086Z,0.40
2023-11-30T00:08:58.624Z,0.38
2023-11-30T00:10:00.707Z,0.37
2023-11-30T00:11:06.389Z,0.37
2023-11-30T00:12:08.413Z,0.38
2023-11-30T00:13:10.416Z,0.33
2023-11-30T00:14:12.437Z,0.32
2023-11-30T00:15:14.588Z,0.32
2023-11-30T00:16:16.624Z,0.33
2023-11-30T00:17:18.616Z,0.33
2023-11-30T00:18:20.682Z,0.34
2023-11-30T00:19:22.769Z,0.35
2023-11-30T00:20:24.773Z,0.36
2023-11-30T00:21:26.796Z,0.31
2023-11-30T00:22:28.793Z,0.32
2023-11-30T00:23:30.800Z,0.31
2023-11-30T00:24:32.796Z,0.30
2023-11-30T00:25:34.838Z,0.30
2023-11-30T00:26:36.833Z,0.29
2023-11-30T00:27:38.838Z,0.31
2023-11-30T00:28:40.820Z,0.31
2023-11-30T00:29:42.820Z,0.31
2023-11-30T00:30:44.812Z,0.29
2023-11-30T00:31:46.817Z,0.26
2023-11-30T00:32:48.869Z,0.21
2023-11-30T00:33:50.944Z,0.23
2023-11-30T00:34:52.979Z,0.20
2023-11-30T00:35:55.062Z,0.14
2023-11-30T00:36:57.097Z,0.14
2023-11-30T00:37:59.081Z,0.14
2023-11-30T00:39:01.130Z,0.12
2023-11-30T00:40:05.057Z,0.11
2023-11-30T00:41:07.370Z,0.08
2023-11-30T00:42:09.560Z,0.08
2023-11-30T00:43:11.726Z,0.08
2023-11-30T00:44:13.739Z,0.06
2023-11-30T00:45:15.865Z,0.04
2023-11-30T00:46:18.017Z,0.03
2023-11-30T00:47:20.134Z,0.02
2023-11-30T00:48:22.218Z,-0.01
2023-11-30T00:49:24.344Z,0.00
2023-11-30T00:50:26.324Z,-0.01
2023-11-30T00:51:30.673Z,-0.03
2023-11-30T00:52:32.661Z,-0.06
2023-11-30T00:53:34.634Z,-0.04
2023-11-30T00:54:36.638Z,-0.06
2023-11-30T00:55:38.632Z,-0.09
2023-11-30T00:56:40.600Z,-0.07
2023-11-30T00:57:42.706Z,-0.09
2023-11-30T00:58:44.744Z,-0.13
2023-11-30T00:59:46.720Z,-0.14
2023-11-30T01:00:48.706Z,-0.14
2023-11-30T01:01:50.757Z,-0.17
2023-11-30T01:02:52.843Z,-0.17
2023-11-30T01:03:54.921Z,-0.17
2023-11-30T01:04:56.952Z,-0.16
2023-11-30T01:05:58.978Z,-0.14
2023-11-30T01:07:00.972Z,-0.13
2023-11-30T01:08:02.945Z,-0.14
2023-11-30T01:09:05.871Z,-0.14
2023-11-30T01:10:08.191Z,-0.16
2023-11-30T01:11:10.170Z,-0.19
2023-11-30T01:12:12.472Z,-0.17
2023-11-30T01:13:14.486Z,-0.21
2023-11-30T01:14:17.067Z,-0.23
2023-11-30T01:15:19.439Z,-0.23
2023-11-30T01:16:21.531Z,-0.24
2023-11-30T01:17:24.104Z,-0.22
2023-11-30T01:18:26.276Z,-0.20
2023-11-30T01:19:28.326Z,-0.19
2023-11-30T01:20:30.775Z,-0.20
2023-11-30T01:21:32.754Z,-0.20
2023-11-30T01:22:34.745Z,-0.21
2023-11-30T01:23:36.729Z,-0.17
2023-11-30T01:24:38.835Z,-0.21
2023-11-30T01:25:40.820Z,-0.22
2023-11-30T01:26:42.840Z,-0.26
2023-11-30T01:27:44.938Z,-0.30
2023-11-30T01:28:46.953Z,-0.30
2023-11-30T01:29:48.984Z,-0.28
2023-11-30T01:30:51.067Z,-0.29
2023-11-30T01:31:53.127Z,-0.32
2023-11-30T01:32:55.183Z,-0.33
2023-11-30T01:33:57.264Z,-0.34
2023-11-30T01:34:59.237Z,-0.36
2023-11-30T01:36:01.334Z,-0.37
2023-11-30T01:37:03.351Z,-0.39
2023-11-30T01:38:05.345Z,-0.40
2023-11-30T01:39:07.414Z,-0.44
2023-11-30T01:40:10.300Z,-0.40
2023-11-30T01:41:12.342Z,-0.41
2023-11-30T01:42:14.379Z,-0.45
2023-11-30T01:43:18.388Z,-0.45
2023-11-30T01:44:20.381Z,-0.46
2023-11-30T01:45:22.378Z,-0.48
2023-11-30T01:46:24.481Z,-0.49
2023-11-30T01:47:26.602Z,-0.49
2023-11-30T01:48:28.678Z,-0.52
2023-11-30T01:49:30.723Z,-0.53
2023-11-30T01:50:33.504Z,-0.57
2023-11-30T01:51:36.640Z,-0.55
2023-11-30T01:52:38.987Z,-0.55
2023-11-30T01:53:41.322Z,-0.57
2023-11-30T01:54:43.341Z,-0.57
2023-11-30T01:55:46.242Z,-0.58
2023-11-30T01:56:48.705Z,-0.58
2023-11-30T01:57:50.951Z,-0.59
2023-11-30T01:58:53.570Z,-0.56
2023-11-30T01:59:56.466Z,-0.60
2023-11-30T02:01:00.038Z,-0.58
2023-11-30T02:02:02.297Z,-0.59
2023-11-30T02:03:04.659Z,-0.59
2023-11-30T02:04:16.330Z,-0.60
2023-11-30T02:05:18.351Z,-0.58
2023-11-30T02:06:20.443Z,-0.61
2023-11-30T02:07:22.541Z,-0.59
2023-11-30T02:08:24.518Z,-0.60
2023-11-30T02:09:26.546Z,-0.60
2023-11-30T02:10:28.635Z,-0.54
2023-11-30T02:11:31.389Z,-0.52
2023-11-30T02:12:33.413Z,-0.51
2023-11-30T02:13:35.459Z,-0.52
2023-11-30T02:14:37.614Z,-0.50
2023-11-30T02:15:39.627Z,-0.45
2023-11-30T02:16:41.652Z,-0.44
2023-11-30T02:17:46.081Z,-0.43
2023-11-30T02:18:48.200Z,-0.42
2023-11-30T02:19:50.231Z,-0.40
2023-11-30T02:20:52.297Z,-0.40
2023-11-30T02:21:54.310Z,-0.42
2023-11-30T02:22:56.297Z,-0.43
2023-11-30T02:23:58.300Z,-0.42
2023-11-30T02:25:01.064Z,-0.40
2023-11-30T02:26:03.083Z,-0.40
2023-11-30T02:27:05.125Z,-0.40
2023-11-30T02:28:07.107Z,-0.42
2023-11-30T02:29:09.094Z,-0.41
2023-11-30T02:30:13.061Z,-0.39
2023-11-30T02:31:15.092Z,-0.40
2023-11-30T02:32:17.088Z,-0.41
2023-11-30T02:33:19.226Z,-0.48
2023-11-30T02:34:21.289Z,-0.51
2023-11-30T02:35:23.827Z,-0.55
2023-11-30T02:36:25.824Z,-0.56
2023-11-30T02:37:27.808Z,-0.59
2023-11-30T02:38:29.785Z,-0.58
2023-11-30T02:39:31.902Z,-0.55
2023-11-30T02:40:33.905Z,-0.56
2023-11-30T02:41:35.875Z,-0.56
2023-11-30T02:42:37.842Z,-0.57
2023-11-30T02:43:39.830Z,-0.54
2023-11-30T02:44:41.798Z,-0.53
2023-11-30T02:45:43.789Z,-0.53
2023-11-30T02:46:45.794Z,-0.55
2023-11-30T02:47:47.809Z,-0.58
2023-11-30T02:48:49.995Z,-0.57
2023-11-30T02:49:52.013Z,-0.57
2023-11-30T02:50:54.013Z,-0.60
2023-11-30T02:51:57.472Z,-0.62
2023-11-30T02:52:59.662Z,-0.64
2023-11-30T02:54:01.642Z,-0.64
2023-11-30T02:55:03.845Z,-0.67
2023-11-30T02:56:06.242Z,-0.66
2023-11-30T02:57:08.277Z,-0.63
2023-11-30T02:58:10.282Z,-0.62
2023-11-30T02:59:12.299Z,-0.61
2023-11-30T03:00:14.631Z,-0.62
2023-11-30T03:01:16.708Z,-0.62
2023-11-30T03:02:18.863Z,-0.61
2023-11-30T03:03:22.095Z,-0.61
2023-11-30T03:04:24.174Z,-0.59
2023-11-30T03:05:26.156Z,-0.58
2023-11-30T03:06:28.196Z,-0.56
2023-11-30T03:07:30.192Z,-0.54
2023-11-30T03:08:32.201Z,-0.53
2023-11-30T03:09:34.960Z,-0.51
2023-11-30T03:10:36.996Z,-0.51
2023-11-30T03:11:40.161Z,-0.50
2023-11-30T03:12:42.182Z,-0.49
2023-11-30T03:13:44.182Z,-0.51
2023-11-30T03:14:47.180Z,-0.50
2023-11-30T03:15:49.213Z,-0.47
2023-11-30T03:16:51.254Z,-0.48
2023-11-30T03:17:53.301Z,-0.48
2023-11-30T03:19:10.183Z,-0.46
2023-11-30T03:20:17.779Z,-0.47
2023-11-30T03:21:20.527Z,-0.47
2023-11-30T03:22:22.610Z,-0.48
2023-11-30T03:23:24.585Z,-0.47
2023-11-30T03:24:26.666Z,-0.48
2023-11-30T03:25:28.794Z,-0.50
2023-11-30T03:26:30.760Z,-0.51
2023-11-30T03:27:32.784Z,-0.57
2023-11-30T03:28:34.811Z,-0.60
2023-11-30T03:29:36.830Z,-0.60
2023-11-30T03:30:38.837Z,-0.61
2023-11-30T03:31:41.435Z,-0.62
2023-11-30T03:32:43.615Z,-0.63
2023-11-30T03:33:45.653Z,-0.62
2023-11-30T03:34:47.676Z,-0.62
2023-11-30T03:35:51.754Z,-0.64
2023-11-30T03:36:53.889Z,-0.65
2023-11-30T03:37:55.911Z,-0.66
2023-11-30T03:38:57.942Z,-0.68
2023-11-30T03:39:59.937Z,-0.69
2023-11-30T03:41:01.955Z,-0.71
2023-11-30T03:42:04.247Z,-0.74
2023-11-30T03:43:06.256Z,-0.77
2023-11-30T03:44:08.276Z,-0.80
2023-11-30T03:45:10.293Z,-0.81
2023-11-30T03:46:12.314Z,-0.81
2023-11-30T03:47:14.316Z,-0.82
2023-11-30T03:48:16.600Z,-0.84
2023-11-30T03:49:18.688Z,-0.84
2023-11-30T03:50:20.680Z,-0.83
2023-11-30T03:51:22.946Z,-0.85
2023-11-30T03:52:24.984Z,-0.86
2023-11-30T03:53:26.979Z,-0.88
2023-11-30T03:54:29.020Z,-0.88
2023-11-30T03:55:31.040Z,-0.89
2023-11-30T03:56:33.530Z,-0.88
2023-11-30T03:57:35.612Z,-0.91
2023-11-30T03:58:37.615Z,-0.92
2023-11-30T03:59:40.185Z,-0.94
2023-11-30T04:00:42.171Z,-0.97
2023-11-30T04:01:44.244Z,-0.99
2023-11-30T04:02:46.368Z,-1.00
2023-11-30T04:03:48.384Z,-1.02
2023-11-30T04:04:50.383Z,-1.03
2023-11-30T04:05:52.375Z,-1.07
2023-11-30T04:06:54.383Z,-1.12
2023-11-30T04:07:56.369Z,-1.15
2023-11-30T04:09:00.420Z,-1.19
2023-11-30T04:10:02.461Z,-1.22
2023-11-30T04:11:04.599Z,-1.26
2023-11-30T04:12:06.917Z,-1.29
2023-11-30T04:13:08.937Z,-1.37
2023-11-30T04:14:10.904Z,-1.40
2023-11-30T04:15:12.942Z,-1.41
2023-11-30T04:16:16.365Z,-1.43
2023-11-30T04:17:18.400Z,-1.47
2023-11-30T04:18:20.439Z,-1.50
2023-11-30T04:19:22.546Z,-1.50
2023-11-30T04:20:24.536Z,-1.48
2023-11-30T04:21:26.547Z,-1.48
2023-11-30T04:22:28.577Z,-1.47
2023-11-30T04:23:30.535Z,-1.46
2023-11-30T04:24:32.580Z,-1.47
2023-11-30T04:25:34.634Z,-1.48
2023-11-30T04:26:36.946Z,-1.48
2023-11-30T04:27:38.944Z,-1.49
2023-11-30T04:28:40.908Z,-1.50
2023-11-30T04:29:42.893Z,-1.47
2023-11-30T04:30:45.018Z,-1.45
2023-11-30T04:31:47.102Z,-1.46
2023-11-30T04:32:49.089Z,-1.48
2023-11-30T04:33:51.140Z,-1.49
2023-11-30T04:34:53.146Z,-1.51
2023-11-30T04:35:55.181Z,-1.52
2023-11-30T04:36:57.568Z,-1.53
2023-11-30T04:37:59.565Z,-1.55
2023-11-30T04:39:01.564Z,-1.56
2023-11-30T04:40:04.223Z,-1.56
2023-11-30T04:41:06.510Z,-1.56
2023-11-30T04:42:08.500Z,-1.53
2023-11-30T04:43:10.513Z,-1.56
2023-11-30T04:44:12.563Z,-1.58
2023-11-30T04:45:14.629Z,-1.60
2023-11-30T04:46:16.714Z,-1.60
2023-11-30T04:47:18.733Z,-1.60
2023-11-30T04:48:20.735Z,-1.62
2023-11-30T04:49:22.750Z,-1.66
2023-11-30T04:50:24.721Z,-1.68
2023-11-30T04:51:27.013Z,-1.71
2023-11-30T04:52:29.053Z,-1.75
2023-11-30T04:53:31.168Z,-1.75
2023-11-30T04:54:33.800Z,-1.80
2023-11-30T04:55:36.469Z,-1.80
2023-11-30T04:56:38.730Z,-1.81
2023-11-30T04:57:40.748Z,-1.81
2023-11-30T04:58:42.728Z,-1.85
2023-11-30T04:59:46.367Z,-1.87
2023-11-30T05:00:49.049Z,-1.89
2023-11-30T05:01:51.183Z,-1.91
2023-11-30T05:02:56.757Z,-1.96
2023-11-30T05:03:59.235Z,-2.00
2023-11-30T05:05:01.445Z,-2.05
2023-11-30T05:06:03.574Z,-2.08
2023-11-30T05:07:05.612Z,-2.10
2023-11-30T05:08:07.592Z,-2.16
2023-11-30T05:09:09.621Z,-2.22
2023-11-30T05:10:11.734Z,-2.24
2023-11-30T05:11:13.727Z,-2.26
2023-11-30T05:12:16.273Z,-2.26
2023-11-30T05:13:18.288Z,-2.25
2023-11-30T05:14:20.280Z,-2.26
2023-11-30T05:15:22.302Z,-2.29
2023-11-30T05:16:24.336Z,-2.33
2023-11-30T05:17:26.374Z,-2.39
2023-11-30T05:18:28.373Z,-2.42
2023-11-30T05:19:30.374Z,-2.44
2023-11-30T05:20:32.610Z,-2.47
2023-11-30T05:21:34.622Z,-2.52
2023-11-30T05:22:36.611Z,-2.55
2023-11-30T05:23:38.616Z,-2.59
2023-11-30T05:24:40.623Z,-2.64
2023-11-30T05:25:43.345Z,-2.70
2023-11-30T05:26:45.345Z,-2.74
2023-11-30T05:27:47.493Z,-2.76
2023-11-30T05:28:49.451Z,-2.80
2023-11-30T05:29:51.431Z,-2.79
2023-11-30T05:30:54.031Z,-2.79
2023-11-30T05:31:56.570Z,-2.76
2023-11-30T05:32:58.969Z,-2.75
2023-11-30T05:34:01.037Z,-2.74
2023-11-30T05:35:03.090Z,-2.74
2023-11-30T05:36:05.616Z,-2.75
2023-11-30T05:37:08.093Z,-2.77
2023-11-30T05:38:10.052Z,-2.75
2023-11-30T05:39:12.081Z,-2.74
2023-11-30T05:40:14.127Z,-2.72
2023-11-30T05:41:17.819Z,-2.71
2023-11-30T05:42:19.842Z,-2.66
2023-11-30T05:43:22.004Z,-2.63
2023-11-30T05:44:24.005Z,-2.60
2023-11-30T05:45:28.419Z,-2.61
2023-11-30T05:46:30.923Z,-2.60
2023-11-30T05:47:32.905Z,-2.60
2023-11-30T05:48:35.086Z,-2.60
2023-11-30T05:49:37.130Z,-2.60
2023-11-30T05:50:39.094Z,-2.62
2023-11-30T05:51:41.244Z,-2.64
2023-11-30T05:52:43.245Z,-2.62
2023-11-30T05:53:45.224Z,-2.59
2023-11-30T05:54:47.257Z,-2.56
2023-11-30T05:55:49.314Z,-2.55
2023-11-30T05:56:51.280Z,-2.56
2023-11-30T05:57:53.268Z,-2.57
2023-11-30T05:58:55.252Z,-2.56
2023-11-30T05:59:57.247Z,-2.56
2023-11-30T06:00:59.373Z,-2.55
2023-11-30T06:02:02.626Z,-2.54
2023-11-30T06:03:07.978Z,-2.55
2023-11-30T06:04:11.015Z,-2.55
2023-11-30T06:05:13.180Z,-2.56
2023-11-30T06:06:15.382Z,-2.57
2023-11-30T06:07:17.367Z,-2.58
2023-11-30T06:08:19.355Z,-2.58
2023-11-30T06:09:21.377Z,-2.56
2023-11-30T06:10:23.391Z,-2.57
2023-11-30T06:11:25.382Z,-2.58
2023-11-30T06:12:27.688Z,-2.61
2023-11-30T06:13:29.758Z,-2.61
2023-11-30T06:14:31.798Z,-2.59
2023-11-30T06:15:33.793Z,-2.58
2023-11-30T06:16:35.776Z,-2.58
2023-11-30T06:17:37.979Z,-2.59
2023-11-30T06:18:40.108Z,-2.60
2023-11-30T06:19:42.204Z,-2.60
2023-11-30T06:20:44.176Z,-2.60
2023-11-30T06:21:46.145Z,-2.61
2023-11-30T06:22:48.137Z,-2.61
2023-11-30T06:23:50.201Z,-2.63
2023-11-30T06:24:52.169Z,-2.63
2023-11-30T06:25:54.160Z,-2.65
2023-11-30T06:26:57.053Z,-2.70
2023-11-30T06:27:59.640Z,-2.71
2023-11-30T06:29:01.605Z,-2.72
2023-11-30T06:30:04.151Z,-2.69
2023-11-30T06:31:06.553Z,-2.71
2023-11-30T06:32:08.560Z,-2.70
2023-11-30T06:33:10.639Z,-2.74
2023-11-30T06:34:12.668Z,-2.74
2023-11-30T06:35:14.658Z,-2.78
2023-11-30T06:36:17.108Z,-2.78
2023-11-30T06:37:19.101Z,-2.80
2023-11-30T06:38:21.087Z,-2.80
2023-11-30T06:39:23.106Z,-2.78
2023-11-30T06:40:25.168Z,-2.79
2023-11-30T06:41:27.165Z,-2.81
2023-11-30T06:42:29.886Z,-2.82
2023-11-30T06:43:31.989Z,-2.84
2023-11-30T06:44:34.003Z,-2.85
2023-11-30T06:45:36.113Z,-2.85
2023-11-30T06:46:40.172Z,-2.84
2023-11-30T06:47:42.179Z,-2.88
2023-11-30T06:48:44.639Z,-2.89
2023-11-30T06:49:48.345Z,-2.87
2023-11-30T06:50:50.349Z,-2.87
2023-11-30T06:51:53.319Z,-2.89
2023-11-30T06:52:55.550Z,-2.91
2023-11-30T06:53:58.059Z,-2.94
2023-11-30T06:55:00.146Z,-2.93
2023-11-30T06:56:02.130Z,-2.91
2023-11-30T06:57:04.329Z,-2.91
2023-11-30T06:58:07.149Z,-2.94
2023-11-30T06:59:09.125Z,-2.95
2023-11-30T07:00:14.144Z,-2.98
2023-11-30T07:01:17.278Z,-2.98
2023-11-30T07:02:19.333Z,-2.98
2023-11-30T07:03:21.409Z,-2.95
2023-11-30T07:04:23.690Z,-2.94
2023-11-30T07:05:25.756Z,-2.89
2023-11-30T07:06:27.761Z,-2.91
2023-11-30T07:07:34.228Z,-2.89
2023-11-30T07:08:38.710Z,-2.89
2023-11-30T07:09:40.804Z,-2.89
2023-11-30T07:10:43.212Z,-2.88
2023-11-30T07:11:45.236Z,-2.89
2023-11-30T07:12:47.486Z,-2.87
2023-11-30T07:13:49.492Z,-2.87
2023-11-30T07:14:51.966Z,-2.86
2023-11-30T07:15:54.217Z,-2.84
2023-11-30T07:16:56.275Z,-2.83
2023-11-30T07:17:58.309Z,-2.82
2023-11-30T07:19:00.631Z,-2.82
2023-11-30T07:20:02.664Z,-2.82
2023-11-30T07:21:05.362Z,-2.82
2023-11-30T07:22:07.401Z,-2.83
2023-11-30T07:23:11.421Z,-2.84
2023-11-30T07:24:13.651Z,-2.83
2023-11-30T07:25:15.679Z,-2.81
2023-11-30T07:26:17.840Z,-2.79
2023-11-30T07:27:20.522Z,-2.77
2023-11-30T07:28:22.547Z,-2.75
2023-11-30T07:29:27.053Z,-2.74
2023-11-30T07:30:30.144Z,-2.76
2023-11-30T07:31:32.307Z,-2.76
2023-11-30T07:32:34.337Z,-2.78
2023-11-30T07:33:37.005Z,-2.81
2023-11-30T07:34:39.012Z,-2.83
2023-11-30T07:35:41.684Z,-2.83
2023-11-30T07:36:43.665Z,-2.82
2023-11-30T07:37:45.668Z,-2.80
2023-11-30T07:38:48.048Z,-2.79
2023-11-30T07:39:50.292Z,-2.75
2023-11-30T07:40:52.262Z,-2.72
2023-11-30T07:41:54.941Z,-2.67
2023-11-30T07:42:57.735Z,-2.64
2023-11-30T07:43:59.919Z,-2.61
2023-11-30T07:45:05.082Z,-2.61
2023-11-30T07:46:07.739Z,-2.58
2023-11-30T07:47:09.735Z,-2.58
2023-11-30T07:48:12.058Z,-2.56
2023-11-30T07:49:14.429Z,-2.54
2023-11-30T07:50:17.198Z,-2.52
2023-11-30T07:51:20.145Z,-2.50
2023-11-30T07:52:22.152Z,-2.51
2023-11-30T07:53:26.999Z,-2.50
2023-11-30T07:54:29.006Z,-2.49
2023-11-30T07:55:31.095Z,-2.46
2023-11-30T07:56:33.089Z,-2.47
2023-11-30T07:57:35.296Z,-2.47
2023-11-30T07:58:37.468Z,-2.46
2023-11-30T07:59:39.448Z,-2.47
2023-11-30T08:00:41.456Z,-2.52
2023-11-30T08:01:43.506Z,-2.54
2023-11-30T08:02:45.501Z,-2.54
2023-11-30T08:03:49.213Z,-2.52
2023-11-30T08:04:51.319Z,-2.54
2023-11-30T08:05:53.342Z,-2.53
2023-11-30T08:06:56.281Z,-2.49
2023-11-30T08:07:58.281Z,-2.44
2023-11-30T08:09:00.408Z,-2.40
2023-11-30T08:10:02.408Z,-2.40
2023-11-30T08:11:05.135Z,-2.37
2023-11-30T08:12:07.320Z,-2.35
2023-11-30T08:13:11.896Z,-2.34
2023-11-30T08:14:14.034Z,-2.31
2023-11-30T08:15:16.254Z,-2.27
2023-11-30T08:16:18.334Z,-2.24
2023-11-30T08:17:20.347Z,-2.22
2023-11-30T08:18:25.778Z,-2.22
2023-11-30T08:19:27.889Z,-2.19
2023-11-30T08:20:29.982Z,-2.20
2023-11-30T08:21:32.057Z,-2.17
2023-11-30T08:22:34.034Z,-2.17
2023-11-30T08:23:37.571Z,-2.15
2023-11-30T08:24:39.857Z,-2.12
2023-11-30T08:25:42.274Z,-2.09
2023-11-30T08:26:44.282Z,-2.05
2023-11-30T08:27:50.921Z,-2.03
2023-11-30T08:28:54.984Z,-1.98
2023-11-30T08:29:56.965Z,-1.94
2023-11-30T08:31:02.283Z,-1.94
2023-11-30T08:32:04.660Z,-1.96
2023-11-30T08:33:07.154Z,-1.95
2023-11-30T08:34:10.045Z,-1.96
2023-11-30T08:35:12.377Z,-1.96
2023-11-30T08:36:14.386Z,-1.92
2023-11-30T08:37:16.393Z,-1.92
2023-11-30T08:38:18.406Z,-1.89
2023-11-30T08:39:24.577Z,-1.86
2023-11-30T08:40:26.735Z,-1.83
2023-11-30T08:41:28.713Z,-1.78
2023-11-30T08:42:31.947Z,-1.75
2023-11-30T08:43:33.978Z,-1.71
2023-11-30T08:44:36.720Z,-1.70
2023-11-30T08:45:39.012Z,-1.68
2023-11-30T08:46:41.568Z,-1.66
2023-11-30T08:47:44.302Z,-1.65
2023-11-30T08:48:46.525Z,-1.65
2023-11-30T08:49:48.545Z,-1.66
2023-11-30T08:50:50.536Z,-1.66
2023-11-30T08:51:52.981Z,-1.66
2023-11-30T08:52:55.071Z,-1.66
2023-11-30T08:53:57.068Z,-1.65
2023-11-30T08:54:59.044Z,-1.63
2023-11-30T08:56:01.018Z,-1.61
2023-11-30T08:57:05.139Z,-1.59
2023-11-30T08:58:07.152Z,-1.59
2023-11-30T08:59:09.664Z,-1.55
2023-11-30T09:00:13.190Z,-1.53
2023-11-30T09:01:15.220Z,-1.49
2023-11-30T09:02:17.416Z,-1.48
2023-11-30T09:03:19.512Z,-1.45
2023-11-30T09:04:21.549Z,-1.42
2023-11-30T09:05:24.821Z,-1.39
2023-11-30T09:06:26.914Z,-1.35
2023-11-30T09:07:29.128Z,-1.31
2023-11-30T09:08:31.176Z,-1.29
2023-11-30T09:09:34.293Z,-1.29
2023-11-30T09:10:36.302Z,-1.26
2023-11-30T09:11:38.299Z,-1.25
2023-11-30T09:12:40.385Z,-1.24
2023-11-30T09:13:42.415Z,-1.22
2023-11-30T09:14:44.375Z,-1.19
2023-11-30T09:15:46.489Z,-1.15
2023-11-30T09:16:48.542Z,-1.10
2023-11-30T09:17:50.814Z,-1.08
2023-11-30T09:18:55.309Z,-1.04
2023-11-30T09:19:57.442Z,-1.01
2023-11-30T09:21:00.590Z,-1.00
2023-11-30T09:22:02.653Z,-0.99
2023-11-30T09:23:07.270Z,-0.97
2023-11-30T09:24:09.507Z,-0.94
2023-11-30T09:25:12.882Z,-0.95
2023-11-30T09:26:14.959Z,-0.94
2023-11-30T09:27:17.051Z,-0.94
2023-11-30T09:28:19.665Z,-0.96
2023-11-30T09:29:21.675Z,-0.94
2023-11-30T09:30:23.711Z,-0.95
2023-11-30T09:31:26.394Z,-0.92
2023-11-30T09:32:28.419Z,-0.91
2023-11-30T09:33:30.556Z,-0.91
2023-11-30T09:34:32.560Z,-0.87
2023-11-30T09:35:34.546Z,-0.86
2023-11-30T09:36:37.551Z,-0.84
2023-11-30T09:37:39.546Z,-0.83
2023-11-30T09:38:42.107Z,-0.82
2023-11-30T09:39:45.595Z,-0.80
2023-11-30T09:40:47.730Z,-0.78
2023-11-30T09:41:49.877Z,-0.77
2023-11-30T09:42:51.925Z,-0.75
2023-11-30T09:43:54.576Z,-0.78
2023-11-30T09:45:00.145Z,-0.81
2023-11-30T09:46:02.716Z,-0.81
2023-11-30T09:47:04.706Z,-0.78
2023-11-30T09:48:06.822Z,-0.78
2023-11-30T09:49:10.224Z,-0.75
2023-11-30T09:50:12.369Z,-0.72
2023-11-30T09:51:20.678Z,-0.70
2023-11-30T09:52:22.849Z,-0.67
2023-11-30T09:53:24.957Z,-0.64
2023-11-30T09:54:27.021Z,-0.61
2023-11-30T09:55:29.608Z,-0.60
2023-11-30T09:56:32.264Z,-0.56
2023-11-30T09:57:34.274Z,-0.59
2023-11-30T09:58:38.568Z,-0.61
2023-11-30T09:59:40.589Z,-0.62
2023-11-30T10:00:42.659Z,-0.62
2023-11-30T10:01:44.895Z,-0.60
2023-11-30T10:02:54.540Z,-0.60
2023-11-30T10:03:56.731Z,-0.58
2023-11-30T10:04:59.042Z,-0.56
2023-11-30T10:06:02.205Z,-0.56
2023-11-30T10:07:04.219Z,-0.57
2023-11-30T10:08:06.207Z,-0.58
2023-11-30T10:09:13.961Z,-0.56
2023-11-30T10:10:16.015Z,-0.59
2023-11-30T10:11:18.269Z,-0.59
2023-11-30T10:12:21.245Z,-0.63
2023-11-30T10:13:23.321Z,-0.64
2023-11-30T10:14:26.247Z,-0.61
2023-11-30T10:15:28.298Z,-0.59
2023-11-30T10:16:30.320Z,-0.59
2023-11-30T10:17:32.565Z,-0.58
2023-11-30T10:18:35.420Z,-0.61
2023-11-30T10:19:38.435Z,-0.58
2023-11-30T10:20:40.498Z,-0.59
2023-11-30T10:21:43.096Z,-0.60
2023-11-30T10:22:45.255Z,-0.62
2023-11-30T10:23:47.630Z,-0.61
2023-11-30T10:24:52.868Z,-0.60
2023-11-30T10:25:54.965Z,-0.60
2023-11-30T10:27:00.367Z,-0.60
2023-11-30T10:28:03.481Z,-0.58
2023-11-30T10:29:07.681Z,-0.57
2023-11-30T10:30:12.723Z,-0.56
2023-11-30T10:31:18.596Z,-0.55
2023-11-30T10:32:23.169Z,-0.50
2023-11-30T10:33:25.929Z,-0.46
2023-11-30T10:34:43.727Z,-0.48
2023-11-30T10:35:48.936Z,-0.45
2023-11-30T10:36:51.420Z,-0.48
2023-11-30T10:37:54.610Z,-0.43
2023-11-30T10:39:02.474Z,-0.44
2023-11-30T10:40:10.519Z,-0.45
2023-11-30T10:41:19.546Z,-0.45
2023-11-30T10:42:24.350Z,-0.42
2023-11-30T10:43:26.825Z,-0.42
2023-11-30T10:44:30.852Z,-0.39
2023-11-30T10:45:37.039Z,-0.38
2023-11-30T10:46:39.501Z,-0.33
2023-11-30T10:47:42.786Z,-0.31
2023-11-30T10:48:44.845Z,-0.29
2023-11-30T10:49:49.743Z,-0.29
2023-11-30T10:50:53.814Z,-0.33
2023-11-30T10:52:01.037Z,-0.33
2023-11-30T10:53:16.269Z,-0.32
2023-11-30T10:54:40.732Z,-0.33
2023-11-30T10:55:43.299Z,-0.28
2023-11-30T10:56:45.521Z,-0.26
2023-11-30T10:57:47.823Z,-0.26
2023-11-30T10:58:49.919Z,-0.29
2023-11-30T10:59:59.600Z,-0.27
2023-11-30T11:01:01.856Z,-0.27
2023-11-30T11:02:06.771Z,-0.27
2023-11-30T11:03:09.739Z,-0.25
2023-11-30T11:04:15.605Z,-0.29
2023-11-30T11:05:21.886Z,-0.26
2023-11-30T11:06:27.887Z,-0.28
2023-11-30T11:07:30.293Z,-0.26
2023-11-30T11:08:32.324Z,-0.27
2023-11-30T11:09:52.717Z,-0.27
2023-11-30T11:10:54.626Z,-0.24
2023-11-30T11:12:02.220Z,-0.23
2023-11-30T11:13:04.215Z,-0.21
2023-11-30T11:14:06.299Z,-0.21
2023-11-30T11:15:15.527Z,-0.21
2023-11-30T11:16:19.131Z,-0.21
2023-11-30T11:17:22.158Z,-0.19
2023-11-30T11:18:30.401Z,-0.16
2023-11-30T11:19:35.614Z,-0.16
2023-11-30T11:20:37.825Z,-0.15
2023-11-30T11:21:40.973Z,-0.15
2023-11-30T11:22:43.908Z,-0.15
2023-11-30T11:23:45.956Z,-0.15
2023-11-30T11:24:48.528Z,-0.14
2023-11-30T11:25:51.152Z,-0.16
2023-11-30T11:27:00.485Z,-0.16
2023-11-30T11:28:02.499Z,-0.16
2023-11-30T11:29:06.082Z,-0.16
2023-11-30T11:30:09.782Z,-0.15
2023-11-30T11:31:12.179Z,-0.17
2023-11-30T11:32:14.710Z,-0.16
2023-11-30T11:33:18.667Z,-0.17
2023-11-30T11:34:20.717Z,-0.13
2023-11-30T11:35:22.708Z,-0.10
2023-11-30T11:36:26.963Z,-0.08
2023-11-30T11:37:29.203Z,-0.07
2023-11-30T11:38:31.623Z,-0.05
2023-11-30T11:39:33.822Z,-0.06
2023-11-30T11:40:39.759Z,-0.06
2023-11-30T11:41:41.766Z,-0.05
2023-11-30T11:42:43.825Z,-0.08
2023-11-30T11:43:48.287Z,-0.03
2023-11-30T11:44:51.538Z,-0.03
2023-11-30T11:45:53.669Z,-0.04
2023-11-30T11:46:55.695Z,-0.04
2023-11-30T11:47:57.712Z,-0.03
2023-11-30T11:48:59.699Z,-0.04
2023-11-30T11:50:01.691Z,-0.03
2023-11-30T11:51:03.894Z,-0.03
2023-11-30T11:52:05.882Z,0.00
2023-11-30T11:53:07.935Z,0.02
2023-11-30T11:54:20.070Z,-0.01
2023-11-30T11:55:23.645Z,0.03
2023-11-30T11:56:25.620Z,0.02
2023-11-30T11:57:38.260Z,-0.01
2023-11-30T11:58:46.529Z,0.02
2023-11-30T11:59:48.497Z,0.06
2023-11-30T12:00:54.823Z,0.06
2023-11-30T12:01:59.465Z,0.09
2023-11-30T12:03:06.709Z,0.11
2023-11-30T12:04:08.840Z,0.11
2023-11-30T12:05:15.462Z,0.12
2023-11-30T12:06:28.164Z,0.09
2023-11-30T12:07:30.199Z,0.10
2023-11-30T12:08:36.080Z,0.07
2023-11-30T12:09:38.340Z,0.08
2023-11-30T12:10:42.111Z,0.08
2023-11-30T12:11:44.148Z,0.09
2023-11-30T12:12:46.164Z,0.11
2023-11-30T12:13:52.053Z,0.11
2023-11-30T12:14:54.029Z,0.12
2023-11-30T12:15:56.412Z,0.10
2023-11-30T12:16:58.784Z,0.10
2023-11-30T12:18:04.554Z,0.09
2023-11-30T12:19:06.552Z,0.14
2023-11-30T12:20:08.961Z,0.15
2023-11-30T12:21:10.989Z,0.17
2023-11-30T12:22:14.975Z,0.16
2023-11-30T12:23:16.942Z,0.15
2023-11-30T12:24:19.010Z,0.17
2023-11-30T12:25:21.248Z,0.14
2023-11-30T12:26:23.213Z,0.17
2023-11-30T12:27:25.188Z,0.19
2023-11-30T12:28:27.302Z,0.23
2023-11-30T12:29:30.073Z,0.24
2023-11-30T12:30:32.174Z,0.23
2023-11-30T12:31:34.223Z,0.20
2023-11-30T12:32:38.742Z,0.23
2023-11-30T12:33:41.222Z,0.25
2023-11-30T12:34:43.232Z,0.22
2023-11-30T12:35:45.205Z,0.21
2023-11-30T12:36:47.232Z,0.21
2023-11-30T12:37:52.237Z,0.19
2023-11-30T12:38:54.282Z,0.19
2023-11-30T12:39:56.521Z,0.19
2023-11-30T12:40:58.559Z,0.19
2023-11-30T12:42:01.899Z,0.21
2023-11-30T12:43:05.040Z,0.21
2023-11-30T12:44:07.019Z,0.20
2023-11-30T12:45:09.495Z,0.20
2023-11-30T12:46:11.551Z,0.19
2023-11-30T12:47:13.580Z,0.22
2023-11-30T12:48:15.640Z,0.21
2023-11-30T12:49:17.655Z,0.20
2023-11-30T12:50:20.560Z,0.19
2023-11-30T12:51:22.640Z,0.18
2023-11-30T12:52:24.654Z,0.19
2023-11-30T12:53:27.041Z,0.20
2023-11-30T12:54:29.190Z,0.20
2023-11-30T12:55:31.241Z,0.20
2023-11-30T12:56:34.051Z,0.19
2023-11-30T12:57:38.532Z,0.19
2023-11-30T12:58:40.694Z,0.20
2023-11-30T12:59:42.693Z,0.21
2023-11-30T13:00:44.825Z,0.23
2023-11-30T13:01:47.936Z,0.26
2023-11-30T13:02:50.036Z,0.27
2023-11-30T13:03:52.118Z,0.29
2023-11-30T13:04:54.728Z,0.31
2023-11-30T13:05:56.739Z,0.32
2023-11-30T13:06:58.817Z,0.35
2023-11-30T13:08:00.784Z,0.36
2023-11-30T13:09:02.759Z,0.38
2023-11-30T13:10:05.367Z,0.39
2023-11-30T13:11:07.431Z,0.39
2023-11-30T13:12:09.508Z,0.42
2023-11-30T13:13:11.693Z,0.41
2023-11-30T13:14:13.664Z,0.41
2023-11-30T13:15:16.652Z,0.42
2023-11-30T13:16:18.750Z,0.42
2023-11-30T13:17:21.164Z,0.43
2023-11-30T13:18:23.373Z,0.44
2023-11-30T13:19:25.731Z,0.42
2023-11-30T13:20:28.020Z,0.47
2023-11-30T13:21:30.404Z,0.41
2023-11-30T13:22:33.479Z,0.40
2023-11-30T13:23:35.472Z,0.40
2023-11-30T13:24:37.606Z,0.39
2023-11-30T13:25:39.817Z,0.37
2023-11-30T13:26:41.865Z,0.37
2023-11-30T13:27:47.366Z,0.35
2023-11-30T13:28:52.583Z,0.36
2023-11-30T13:29:55.012Z,0.33
2023-11-30T13:30:57.416Z,0.32
2023-11-30T13:32:00.549Z,0.31
2023-11-30T13:33:05.387Z,0.34